Tazewell, Tennessee
Current Conditions -  °F | °C
As of 12:35 PM on Thursday 23 Oct 2014 (Local Time) from K1A6 Reporting Station
Clear Clear  
Wind Chill: 56°   Ceiling: Unl
Heat Index: 56°   Visibility: 10mi
Dew Point: 40°   Wind: 5mph
Humidity: 56%   Direction: 40°NE
Pressure: 30.21"   Gusts: NA
Location:  36.45°N, 83.57°W
Report Text: K1A6 231635Z AUTO 04004KT 10SM CLR 13/04 A3021 RMK AO2 T01310044
Loading
Personal Weather Stations






























Interactive Weather Map
Tropical Storm Tracking
New forecast layout! Learn more

10-Day Weather Forecast

Advertisements
Track Severe Weather on mobile